createdAt,value
2023-03-29T00:00:14.639Z,27.00
2023-03-29T00:03:04.454Z,28.10
2023-03-29T00:05:36.508Z,26.40
2023-03-29T00:08:05.495Z,28.00
2023-03-29T00:10:34.795Z,23.40
2023-03-29T00:13:03.582Z,22.00
2023-03-29T00:15:32.283Z,20.50
2023-03-29T00:18:01.065Z,24.90
2023-03-29T00:20:29.732Z,25.30
2023-03-29T00:22:58.946Z,25.90
2023-03-29T00:25:27.409Z,24.70
2023-03-29T00:27:56.102Z,27.90
2023-03-29T00:30:25.076Z,25.80
2023-03-29T00:32:53.713Z,29.70
2023-03-29T00:35:22.387Z,28.00
2023-03-29T00:37:51.176Z,27.30
2023-03-29T00:40:20.250Z,26.90
2023-03-29T00:42:49.026Z,23.50
2023-03-29T00:45:23.548Z,26.30
2023-03-29T00:47:57.316Z,25.70
2023-03-29T00:50:32.693Z,22.60
2023-03-29T00:53:11.295Z,26.00
2023-03-29T00:55:56.487Z,24.20
2023-03-29T00:58:38.075Z,24.20
2023-03-29T01:01:09.244Z,27.20
2023-03-29T01:03:46.929Z,23.20
2023-03-29T01:06:17.516Z,22.70
2023-03-29T01:08:51.839Z,26.00
2023-03-29T01:11:36.283Z,24.10
2023-03-29T01:14:11.176Z,24.60
2023-03-29T01:16:39.786Z,27.90
2023-03-29T01:19:10.980Z,22.80
2023-03-29T01:21:48.153Z,23.40
2023-03-29T01:24:28.249Z,25.30
2023-03-29T01:27:18.542Z,21.30
2023-03-29T01:29:54.469Z,24.80
2023-03-29T01:32:36.945Z,21.70
2023-03-29T01:35:13.649Z,24.70
2023-03-29T01:37:58.821Z,25.30
2023-03-29T01:40:28.641Z,24.60
2023-03-29T01:43:03.078Z,25.60
2023-03-29T01:45:37.992Z,26.50
2023-03-29T01:48:18.849Z,24.80
2023-03-29T01:51:01.924Z,23.50
2023-03-29T01:53:38.761Z,22.20
2023-03-29T01:56:12.887Z,20.00
2023-03-29T01:58:46.887Z,23.00
2023-03-29T02:01:19.702Z,26.20
2023-03-29T02:03:51.234Z,20.30
2023-03-29T02:06:24.093Z,27.00
2023-03-29T02:08:53.807Z,23.70
2023-03-29T02:11:24.443Z,25.90
2023-03-29T02:13:54.395Z,22.20
2023-03-29T02:16:23.542Z,20.60
2023-03-29T02:18:54.498Z,22.50
2023-03-29T02:21:52.252Z,20.70
2023-03-29T02:24:22.381Z,22.60
2023-03-29T02:26:51.267Z,22.80
2023-03-29T02:29:19.845Z,17.10
2023-03-29T02:32:06.356Z,18.40
2023-03-29T02:34:39.644Z,19.40
2023-03-29T02:37:15.907Z,19.90
2023-03-29T02:39:44.740Z,18.60
2023-03-29T02:42:17.611Z,21.80
2023-03-29T02:44:47.746Z,19.90
2023-03-29T02:47:17.095Z,12.30
2023-03-29T02:49:46.084Z,17.50
2023-03-29T02:52:17.750Z,15.40
2023-03-29T02:54:48.276Z,13.60
2023-03-29T02:57:17.165Z,17.60
2023-03-29T02:59:45.845Z,13.30
2023-03-29T03:02:14.511Z,10.90
2023-03-29T03:04:43.630Z,13.70
2023-03-29T03:07:12.415Z,11.60
2023-03-29T03:09:41.506Z,14.00
2023-03-29T03:12:10.605Z,10.20
2023-03-29T03:14:39.908Z,13.70
2023-03-29T03:17:08.497Z,15.40
2023-03-29T03:19:37.171Z,10.80
2023-03-29T03:22:06.475Z,11.20
2023-03-29T03:24:36.279Z,14.70
2023-03-29T03:27:05.581Z,9.70
2023-03-29T03:29:34.285Z,9.40
2023-03-29T03:32:23.279Z,11.50
2023-03-29T03:35:07.983Z,13.00
2023-03-29T03:37:36.684Z,11.50
2023-03-29T03:40:09.644Z,11.70
2023-03-29T03:42:39.742Z,15.00
2023-03-29T03:45:10.148Z,14.60
2023-03-29T03:48:01.045Z,13.60
2023-03-29T03:50:58.613Z,11.70
2023-03-29T03:53:32.685Z,10.60
2023-03-29T03:56:16.827Z,11.60
2023-03-29T03:59:11.430Z,12.80
2023-03-29T04:01:51.263Z,13.10
2023-03-29T04:04:21.405Z,11.00
2023-03-29T04:07:13.528Z,14.40
2023-03-29T04:09:57.267Z,14.60
2023-03-29T04:12:46.459Z,12.80
2023-03-29T04:15:15.117Z,16.80
2023-03-29T04:17:48.261Z,11.90
2023-03-29T04:20:30.099Z,15.00
2023-03-29T04:22:58.898Z,15.40
2023-03-29T04:25:27.796Z,14.50
2023-03-29T04:28:14.355Z,14.70
2023-03-29T04:30:51.526Z,16.50
2023-03-29T04:33:43.374Z,13.00
2023-03-29T04:36:14.240Z,13.50
2023-03-29T04:38:47.342Z,14.20
2023-03-29T04:41:16.918Z,13.00
2023-03-29T04:43:58.627Z,9.90
2023-03-29T04:46:28.907Z,15.20
2023-03-29T04:49:17.016Z,12.30
2023-03-29T04:51:48.747Z,10.30
2023-03-29T04:54:20.002Z,10.40
2023-03-29T04:57:02.474Z,9.80
2023-03-29T04:59:37.441Z,11.80
2023-03-29T05:02:14.421Z,14.20
2023-03-29T05:04:44.320Z,14.50
2023-03-29T05:07:18.009Z,14.10
2023-03-29T05:09:47.712Z,12.50
2023-03-29T05:12:16.506Z,14.20
2023-03-29T05:14:54.450Z,13.40
2023-03-29T05:17:27.897Z,12.60
2023-03-29T05:20:10.333Z,15.30
2023-03-29T05:22:40.712Z,16.10
2023-03-29T05:25:14.229Z,13.40
2023-03-29T05:27:46.213Z,13.70
2023-03-29T05:30:15.656Z,10.50
2023-03-29T05:33:02.861Z,12.90
2023-03-29T05:35:32.136Z,11.50
2023-03-29T05:38:01.236Z,10.70
2023-03-29T05:40:29.915Z,11.90
2023-03-29T05:43:25.335Z,11.70
2023-03-29T05:45:55.746Z,13.20
2023-03-29T05:48:26.078Z,11.00
2023-03-29T05:50:56.713Z,12.70
2023-03-29T05:53:27.648Z,9.40
2023-03-29T05:55:57.778Z,11.20
2023-03-29T05:58:28.913Z,12.30
2023-03-29T06:01:00.875Z,13.30
2023-03-29T06:03:38.985Z,12.80
2023-03-29T06:06:09.941Z,9.00
2023-03-29T06:08:38.702Z,12.70
2023-03-29T06:11:30.943Z,11.20
2023-03-29T06:14:18.071Z,9.40
2023-03-29T06:16:51.718Z,9.60
2023-03-29T06:19:20.751Z,11.20
2023-03-29T06:21:49.349Z,12.40
2023-03-29T06:24:21.097Z,8.60
2023-03-29T06:26:53.794Z,10.20
2023-03-29T06:29:22.988Z,10.40
2023-03-29T06:31:51.960Z,8.00
2023-03-29T06:34:50.287Z,12.10
2023-03-29T06:37:55.099Z,8.60
2023-03-29T06:40:44.979Z,7.20
2023-03-29T06:43:14.568Z,9.40
2023-03-29T06:45:55.984Z,9.50
2023-03-29T06:48:33.383Z,9.80
2023-03-29T06:51:02.525Z,9.80
2023-03-29T06:53:33.175Z,11.90
2023-03-29T06:56:09.564Z,9.20
2023-03-29T06:58:41.300Z,10.30
2023-03-29T07:01:30.299Z,11.70
2023-03-29T07:04:08.417Z,8.90
2023-03-29T07:06:59.176Z,11.10
2023-03-29T07:12:45.292Z,9.50
2023-03-29T07:15:14.665Z,9.90
2023-03-29T07:18:12.956Z,10.50
2023-03-29T07:20:42.904Z,9.80
2023-03-29T07:23:12.162Z,9.50
2023-03-29T07:25:41.474Z,10.80
2023-03-29T07:28:11.593Z,9.60
2023-03-29T07:30:40.989Z,9.10
2023-03-29T07:33:14.837Z,8.30
2023-03-29T07:35:55.717Z,10.00
2023-03-29T07:38:25.892Z,8.90
2023-03-29T07:41:00.788Z,9.50
2023-03-29T07:43:32.265Z,10.90
2023-03-29T07:46:05.896Z,9.70
2023-03-29T07:48:37.532Z,10.70
2023-03-29T07:51:08.579Z,8.00
2023-03-29T07:53:50.369Z,8.80
2023-03-29T07:56:38.218Z,7.40
2023-03-29T07:59:30.032Z,8.90
2023-03-29T08:02:12.225Z,7.90
2023-03-29T08:04:47.332Z,10.50
2023-03-29T08:07:22.308Z,8.20
2023-03-29T08:09:53.654Z,8.60
2023-03-29T08:12:26.007Z,8.00
2023-03-29T08:14:57.390Z,8.90
2023-03-29T08:17:32.435Z,7.60
2023-03-29T08:20:04.499Z,8.20
2023-03-29T08:22:34.606Z,9.40
2023-03-29T08:25:30.090Z,8.80
2023-03-29T08:27:59.606Z,8.40
2023-03-29T08:30:50.115Z,9.60
2023-03-29T08:33:19.371Z,7.90
2023-03-29T08:35:52.233Z,9.20
2023-03-29T08:38:24.238Z,8.80
2023-03-29T08:40:53.149Z,9.60
2023-03-29T08:43:32.374Z,9.30
2023-03-29T08:46:28.968Z,9.30
2023-03-29T08:49:04.132Z,8.40
2023-03-29T08:51:37.842Z,9.60
2023-03-29T08:54:11.714Z,9.90
2023-03-29T08:57:03.727Z,8.50
2023-03-29T08:59:37.903Z,9.80
2023-03-29T09:02:18.380Z,8.40
2023-03-29T09:04:51.247Z,10.00
2023-03-29T09:07:43.188Z,9.70
2023-03-29T09:10:18.281Z,11.10
2023-03-29T09:13:02.850Z,9.00
2023-03-29T09:15:58.480Z,8.50
2023-03-29T09:19:07.011Z,9.40
2023-03-29T09:21:44.806Z,12.30
2023-03-29T09:24:27.151Z,8.60
2023-03-29T09:27:05.685Z,10.90
2023-03-29T09:29:59.810Z,9.00
2023-03-29T09:32:52.494Z,10.50
2023-03-29T09:35:30.559Z,8.50
2023-03-29T09:37:59.862Z,9.30
2023-03-29T09:40:35.099Z,9.60
2023-03-29T09:43:14.143Z,10.70
2023-03-29T09:45:44.256Z,8.50
2023-03-29T09:48:18.256Z,9.00
2023-03-29T09:50:54.624Z,7.70
2023-03-29T09:53:24.436Z,13.10
2023-03-29T09:56:07.250Z,10.60
2023-03-29T09:58:58.661Z,9.90
2023-03-29T10:01:37.486Z,9.00
2023-03-29T10:04:08.750Z,8.90
2023-03-29T10:06:50.860Z,9.70
2023-03-29T10:09:25.055Z,9.40
2023-03-29T10:12:02.487Z,10.10
2023-03-29T10:14:41.782Z,9.40
2023-03-29T10:17:24.737Z,10.80
2023-03-29T10:19:58.321Z,9.20
2023-03-29T10:22:32.659Z,10.00
2023-03-29T10:25:01.526Z,9.90
2023-03-29T10:27:32.432Z,10.90
2023-03-29T10:30:08.504Z,8.60
2023-03-29T10:32:38.452Z,9.70
2023-03-29T10:35:23.994Z,9.80
2023-03-29T10:37:54.220Z,9.60
2023-03-29T10:40:26.796Z,9.80
2023-03-29T10:42:59.724Z,10.20
2023-03-29T10:45:35.412Z,9.80
2023-03-29T10:48:05.275Z,9.20
2023-03-29T10:50:35.932Z,9.50
2023-03-29T10:53:13.358Z,9.70
2023-03-29T10:55:52.832Z,10.00
2023-03-29T10:58:34.904Z,6.50
2023-03-29T11:01:04.436Z,7.10
2023-03-29T11:03:59.293Z,9.40
2023-03-29T11:06:44.790Z,8.30
2023-03-29T11:09:42.378Z,9.50
2023-03-29T11:12:53.957Z,8.00
2023-03-29T11:15:27.641Z,9.10
2023-03-29T11:18:19.061Z,8.60
2023-03-29T11:21:24.506Z,7.70
2023-03-29T11:24:02.215Z,7.30
2023-03-29T11:26:43.689Z,11.80
2023-03-29T11:29:23.200Z,8.00
2023-03-29T11:32:44.332Z,8.70
2023-03-29T11:35:34.052Z,6.80
2023-03-29T11:38:12.438Z,8.90
2023-03-29T11:41:01.773Z,8.40
2023-03-29T11:43:31.521Z,8.90
2023-03-29T11:46:10.632Z,11.50
2023-03-29T11:48:46.710Z,7.50
2023-03-29T11:51:28.321Z,8.30
2023-03-29T11:54:00.062Z,9.30
2023-03-29T11:56:47.589Z,7.70
2023-03-29T11:59:38.296Z,8.50
2023-03-29T12:02:19.449Z,8.20
2023-03-29T12:04:54.306Z,7.10
2023-03-29T12:07:45.010Z,9.10
2023-03-29T12:10:31.850Z,9.30
2023-03-29T12:13:15.950Z,9.00
2023-03-29T12:15:50.986Z,8.30
2023-03-29T12:18:31.180Z,7.30
2023-03-29T12:21:01.876Z,8.70
2023-03-29T12:23:33.870Z,8.80
2023-03-29T12:26:16.765Z,9.30
2023-03-29T12:29:09.933Z,8.10
2023-03-29T12:31:52.580Z,9.80
2023-03-29T12:34:56.657Z,10.30
2023-03-29T12:38:08.765Z,7.20
2023-03-29T12:41:04.435Z,8.60
2023-03-29T12:43:52.204Z,7.90
2023-03-29T12:46:44.183Z,6.60
2023-03-29T12:49:27.777Z,8.30
2023-03-29T12:51:59.144Z,8.60
2023-03-29T12:54:34.258Z,8.80
2023-03-29T12:57:24.488Z,7.40
2023-03-29T12:59:53.799Z,8.40
2023-03-29T13:02:22.475Z,8.70
2023-03-29T13:04:54.287Z,9.60
2023-03-29T13:07:23.184Z,6.80
2023-03-29T13:10:03.953Z,9.00
2023-03-29T13:12:35.509Z,8.60
2023-03-29T13:15:24.099Z,9.60
2023-03-29T13:17:52.659Z,7.80
2023-03-29T13:20:27.366Z,7.60
2023-03-29T13:23:17.638Z,8.70
2023-03-29T13:25:52.538Z,8.00
2023-03-29T13:28:46.596Z,8.60
2023-03-29T13:31:33.703Z,8.60
2023-03-29T13:34:05.961Z,9.10
2023-03-29T13:36:47.033Z,10.00
2023-03-29T13:39:22.967Z,9.70
2023-03-29T13:41:53.846Z,8.60
2023-03-29T13:44:22.942Z,7.90
2023-03-29T13:47:03.992Z,9.40
2023-03-29T13:49:35.528Z,8.50
2023-03-29T13:52:25.331Z,7.70
2023-03-29T13:54:58.775Z,10.50
2023-03-29T13:57:41.858Z,8.90
2023-03-29T14:00:23.547Z,8.70
2023-03-29T14:03:06.472Z,9.90
2023-03-29T14:05:58.268Z,8.30
2023-03-29T14:08:30.785Z,7.40
2023-03-29T14:11:07.344Z,8.00
2023-03-29T14:13:36.116Z,7.90
2023-03-29T14:16:10.628Z,9.10
2023-03-29T14:18:46.831Z,8.70
2023-03-29T14:21:16.098Z,8.70
2023-03-29T14:23:47.159Z,8.50
2023-03-29T14:26:22.282Z,8.10
2023-03-29T14:28:57.146Z,6.50
2023-03-29T14:31:37.294Z,6.30
2023-03-29T14:34:19.208Z,7.60
2023-03-29T14:36:49.308Z,9.10
2023-03-29T14:39:21.132Z,8.30
2023-03-29T14:41:55.294Z,9.20
2023-03-29T14:44:27.497Z,6.50
2023-03-29T14:46:56.398Z,8.50
2023-03-29T14:49:25.291Z,7.70
2023-03-29T14:51:55.408Z,9.40
2023-03-29T14:54:29.940Z,7.80
2023-03-29T14:56:59.904Z,8.90
2023-03-29T14:59:36.886Z,8.00
2023-03-29T15:02:23.328Z,7.20
2023-03-29T15:05:17.218Z,7.50
2023-03-29T15:07:46.316Z,7.80
2023-03-29T15:10:19.816Z,9.20
2023-03-29T15:12:50.137Z,8.90
2023-03-29T15:15:19.450Z,8.00
2023-03-29T15:17:52.322Z,8.20
2023-03-29T15:20:35.476Z,7.70
2023-03-29T15:23:08.125Z,7.60
2023-03-29T15:25:39.645Z,7.30
2023-03-29T15:28:43.087Z,9.30
2023-03-29T15:31:15.114Z,8.60
2023-03-29T15:33:44.130Z,8.00
2023-03-29T15:36:14.462Z,8.00
2023-03-29T15:38:45.368Z,10.40
2023-03-29T15:41:14.894Z,7.60
2023-03-29T15:43:43.785Z,8.80
2023-03-29T15:46:17.230Z,9.50
2023-03-29T15:48:46.375Z,8.70
2023-03-29T15:51:15.446Z,10.10
2023-03-29T15:53:44.494Z,9.70
2023-03-29T15:56:18.496Z,9.50
2023-03-29T15:58:48.952Z,7.50
2023-03-29T16:01:34.616Z,9.30
2023-03-29T16:04:11.736Z,8.90
2023-03-29T16:06:41.415Z,8.50
2023-03-29T16:09:12.434Z,9.10
2023-03-29T16:11:42.957Z,10.70
2023-03-29T16:14:33.587Z,9.80
2023-03-29T16:17:06.707Z,10.00
2023-03-29T16:19:35.625Z,10.10
2023-03-29T16:22:08.156Z,7.90
2023-03-29T16:24:37.190Z,8.90
2023-03-29T16:27:06.408Z,9.70
2023-03-29T16:29:38.658Z,8.50
2023-03-29T16:32:07.596Z,8.60
2023-03-29T16:34:36.430Z,8.40
2023-03-29T16:37:05.243Z,8.70
2023-03-29T16:39:34.998Z,8.70
2023-03-29T16:42:04.266Z,9.80
2023-03-29T16:44:33.121Z,11.50
2023-03-29T16:47:02.756Z,12.70
2023-03-29T16:49:32.375Z,11.40
2023-03-29T16:52:01.353Z,12.70
2023-03-29T16:54:32.057Z,9.90
2023-03-29T16:57:00.948Z,8.50
2023-03-29T16:59:30.090Z,11.10
2023-03-29T17:01:58.880Z,8.30
2023-03-29T17:04:29.631Z,10.50
2023-03-29T17:06:58.876Z,9.90
2023-03-29T17:09:29.824Z,14.90
2023-03-29T17:11:59.673Z,10.70
2023-03-29T17:14:28.836Z,10.60
2023-03-29T17:16:58.046Z,10.30
2023-03-29T17:19:27.418Z,12.20
2023-03-29T17:21:57.970Z,13.40
2023-03-29T17:24:26.951Z,9.90
2023-03-29T17:26:56.663Z,11.10
2023-03-29T17:29:27.383Z,10.40
2023-03-29T17:31:56.913Z,10.20
2023-03-29T17:34:29.803Z,9.60
2023-03-29T17:36:59.635Z,12.70
2023-03-29T17:39:29.809Z,12.10
2023-03-29T17:41:58.899Z,11.40
2023-03-29T17:44:28.883Z,13.80
2023-03-29T17:46:58.488Z,10.20
2023-03-29T17:49:31.893Z,11.00
2023-03-29T17:52:01.765Z,11.00
2023-03-29T17:54:32.052Z,13.90
2023-03-29T17:57:01.777Z,14.90
2023-03-29T17:59:32.563Z,13.40
2023-03-29T18:02:06.337Z,12.10
2023-03-29T18:04:37.181Z,10.30
2023-03-29T18:07:11.806Z,10.50
2023-03-29T18:09:53.574Z,10.20
2023-03-29T18:12:26.368Z,9.20
2023-03-29T18:15:00.418Z,10.70
2023-03-29T18:17:30.639Z,9.20
2023-03-29T18:20:00.587Z,9.10
2023-03-29T18:22:36.656Z,10.60
2023-03-29T18:25:10.390Z,9.80
2023-03-29T18:27:41.038Z,10.00
2023-03-29T18:30:12.429Z,10.60
2023-03-29T18:32:43.097Z,10.50
2023-03-29T18:35:14.105Z,8.60
2023-03-29T18:37:44.878Z,11.40
2023-03-29T18:40:17.563Z,9.60
2023-03-29T18:42:53.609Z,9.80
2023-03-29T18:45:22.878Z,10.20
2023-03-29T18:47:55.021Z,10.10
2023-03-29T18:50:25.816Z,11.20
2023-03-29T18:52:59.452Z,9.10
2023-03-29T18:55:33.021Z,10.00
2023-03-29T18:58:04.149Z,10.70
2023-03-29T19:00:37.532Z,9.10
2023-03-29T19:03:08.805Z,8.80
2023-03-29T19:05:40.273Z,8.60
2023-03-29T19:08:12.224Z,13.60
2023-03-29T19:10:43.608Z,9.80
2023-03-29T19:13:15.334Z,8.80
2023-03-29T19:15:50.691Z,9.20
2023-03-29T19:18:27.863Z,11.20
2023-03-29T19:20:59.045Z,10.20
2023-03-29T19:23:31.816Z,10.80
2023-03-29T19:26:06.526Z,11.90
2023-03-29T19:28:42.738Z,12.80
2023-03-29T19:31:18.613Z,11.60
2023-03-29T19:33:49.356Z,13.00
2023-03-29T19:36:23.076Z,11.70
2023-03-29T19:38:55.347Z,12.50
2023-03-29T19:41:27.623Z,11.40
2023-03-29T19:43:58.199Z,13.00
2023-03-29T19:46:29.749Z,10.70
2023-03-29T19:49:02.667Z,12.20
2023-03-29T19:51:37.073Z,11.70
2023-03-29T19:54:09.637Z,12.80
2023-03-29T19:56:41.273Z,10.90
2023-03-29T19:59:19.061Z,13.10
2023-03-29T20:01:52.466Z,12.20
2023-03-29T20:04:23.494Z,10.70
2023-03-29T20:06:53.550Z,12.10
2023-03-29T20:09:24.649Z,11.20
2023-03-29T20:11:54.455Z,10.00
2023-03-29T20:14:24.372Z,11.00
2023-03-29T20:16:54.854Z,10.70
2023-03-29T20:19:26.379Z,13.30
2023-03-29T20:21:57.853Z,11.80
2023-03-29T20:24:28.759Z,11.50
2023-03-29T20:26:59.058Z,12.50
2023-03-29T20:29:28.790Z,9.10
2023-03-29T20:31:59.251Z,12.70
2023-03-29T20:34:28.751Z,14.30
2023-03-29T20:37:02.598Z,13.20
2023-03-29T20:39:32.019Z,12.60
2023-03-29T20:42:01.265Z,15.40
2023-03-29T20:44:33.541Z,14.50
2023-03-29T20:47:05.476Z,14.00
2023-03-29T20:49:39.546Z,15.00
2023-03-29T20:52:13.185Z,12.10
2023-03-29T20:54:43.122Z,13.40
2023-03-29T20:57:15.029Z,13.50
2023-03-29T20:59:44.604Z,13.60
2023-03-29T21:02:17.493Z,13.10
2023-03-29T21:04:50.306Z,14.00
2023-03-29T21:07:20.676Z,12.70
2023-03-29T21:09:50.522Z,13.90
2023-03-29T21:12:20.704Z,13.30
2023-03-29T21:14:49.796Z,11.60
2023-03-29T21:17:18.676Z,13.70
2023-03-29T21:19:47.574Z,13.10
2023-03-29T21:22:17.163Z,12.10
2023-03-29T21:24:45.958Z,11.60
2023-03-29T21:27:14.856Z,14.20
2023-03-29T21:29:43.754Z,13.30
2023-03-29T21:32:12.451Z,14.20
2023-03-29T21:34:41.614Z,11.80
2023-03-29T21:37:11.347Z,12.80
2023-03-29T21:39:41.967Z,12.70
2023-03-29T21:42:11.172Z,10.60
2023-03-29T21:44:40.059Z,12.20
2023-03-29T21:47:09.647Z,11.30
2023-03-29T21:49:38.443Z,12.00
2023-03-29T21:52:08.365Z,12.50
2023-03-29T21:54:38.272Z,13.40
2023-03-29T21:57:07.106Z,11.30
2023-03-29T21:59:36.056Z,11.70
2023-03-29T22:02:04.770Z,12.00
2023-03-29T22:04:36.503Z,13.40
2023-03-29T22:07:06.932Z,11.70
2023-03-29T22:09:35.715Z,10.30
2023-03-29T22:12:05.410Z,9.20
2023-03-29T22:14:38.494Z,12.20
2023-03-29T22:17:07.421Z,10.60
2023-03-29T22:19:40.518Z,11.70
2023-03-29T22:22:14.063Z,11.20
2023-03-29T22:24:42.994Z,10.60
2023-03-29T22:27:12.293Z,13.10
2023-03-29T22:29:41.663Z,10.50
2023-03-29T22:32:11.042Z,11.10
2023-03-29T22:34:40.278Z,12.10
2023-03-29T22:37:09.924Z,12.30
2023-03-29T22:39:38.603Z,11.80
2023-03-29T22:42:09.150Z,12.10
2023-03-29T22:44:37.897Z,9.90
2023-03-29T22:47:07.515Z,11.00
2023-03-29T22:49:36.409Z,11.20
2023-03-29T22:52:05.588Z,12.90
2023-03-29T22:54:34.172Z,13.30
2023-03-29T22:57:02.873Z,11.50
2023-03-29T22:59:33.826Z,11.50
2023-03-29T23:02:06.547Z,12.30
2023-03-29T23:04:37.032Z,11.40
2023-03-29T23:07:06.805Z,12.90
2023-03-29T23:09:35.599Z,12.00
2023-03-29T23:12:04.667Z,12.60
2023-03-29T23:14:34.400Z,9.40
2023-03-29T23:17:03.106Z,9.20
2023-03-29T23:19:32.202Z,9.30
2023-03-29T23:22:01.398Z,9.60
2023-03-29T23:24:31.102Z,12.50
2023-03-29T23:27:01.515Z,9.30
2023-03-29T23:29:30.216Z,10.30
2023-03-29T23:32:00.046Z,10.30
2023-03-29T23:34:28.907Z,11.70
2023-03-29T23:36:57.692Z,9.60
2023-03-29T23:39:26.575Z,10.60
2023-03-29T23:41:55.372Z,10.10
2023-03-29T23:44:24.079Z,11.30
2023-03-29T23:46:53.446Z,9.90
2023-03-29T23:49:23.299Z,10.10
2023-03-29T23:51:52.050Z,11.80
2023-03-29T23:54:20.967Z,12.00
2023-03-29T23:56:49.647Z,9.70
2023-03-29T23:59:18.530Z,10.50
